createdAt,value
2018-08-04T00:02:19.848Z,5.60
2018-08-04T00:04:47.775Z,5.30
2018-08-04T00:07:15.671Z,7.53
2018-08-04T00:09:43.552Z,7.20
2018-08-04T00:12:11.874Z,5.80
2018-08-04T00:14:39.748Z,6.57
2018-08-04T00:17:07.619Z,6.17
2018-08-04T00:19:35.570Z,9.40
2018-08-04T00:22:03.464Z,6.57
2018-08-04T00:24:31.364Z,8.17
2018-08-04T00:26:59.241Z,5.77
2018-08-04T00:29:27.237Z,7.20
2018-08-04T00:31:55.137Z,7.83
2018-08-04T00:34:23.014Z,7.20
2018-08-04T00:36:50.960Z,6.50
2018-08-04T00:39:18.879Z,7.33
2018-08-04T00:41:46.860Z,6.13
2018-08-04T00:44:14.739Z,5.87
2018-08-04T00:46:43.108Z,6.10
2018-08-04T00:49:10.987Z,6.03
2018-08-04T00:51:39.435Z,8.57
2018-08-04T00:54:07.701Z,6.63
2018-08-04T00:56:35.576Z,7.37
2018-08-04T00:59:03.568Z,5.93
2018-08-04T01:01:31.487Z,6.43
2018-08-04T01:03:59.391Z,8.27
2018-08-04T01:06:27.281Z,8.67
2018-08-04T01:08:55.164Z,6.00
2018-08-04T01:11:23.119Z,6.73
2018-08-04T01:13:51.079Z,8.67
2018-08-04T01:16:18.959Z,8.77
2018-08-04T01:18:46.827Z,7.20
2018-08-04T01:21:14.779Z,10.87
2018-08-04T01:23:42.655Z,7.37
2018-08-04T01:26:10.844Z,9.33
2018-08-04T01:28:38.748Z,8.43
2018-08-04T01:31:06.629Z,7.50
2018-08-04T01:33:34.543Z,9.10
2018-08-04T01:36:02.495Z,11.23
2018-08-04T01:38:30.493Z,8.47
2018-08-04T01:40:58.419Z,6.57
2018-08-04T01:43:26.305Z,7.57
2018-08-04T01:45:54.204Z,8.63
2018-08-04T01:48:22.128Z,7.43
2018-08-04T01:50:50.004Z,8.67
2018-08-04T01:53:17.880Z,7.00
2018-08-04T01:55:45.889Z,7.60
2018-08-04T01:58:13.822Z,6.80
2018-08-04T02:00:41.684Z,8.03
2018-08-04T02:03:09.574Z,7.00
2018-08-04T02:05:37.507Z,10.63
2018-08-04T02:08:05.488Z,9.23
2018-08-04T02:10:33.359Z,11.57
2018-08-04T02:13:01.260Z,9.03
2018-08-04T02:15:29.160Z,8.23
2018-08-04T02:17:57.051Z,7.23
2018-08-04T02:20:25.004Z,8.23
2018-08-04T02:22:52.944Z,7.30
2018-08-04T02:25:20.823Z,6.77
2018-08-04T02:27:48.751Z,7.03
2018-08-04T02:30:16.604Z,7.80
2018-08-04T02:32:44.513Z,7.93
2018-08-04T02:35:12.408Z,7.13
2018-08-04T02:37:40.378Z,7.20
2018-08-04T02:40:08.277Z,6.83
2018-08-04T02:42:36.212Z,11.73
2018-08-04T02:45:04.518Z,7.27
2018-08-04T02:47:32.419Z,7.67
2018-08-04T02:50:00.317Z,9.60
2018-08-04T02:52:28.295Z,6.90
2018-08-04T02:54:56.176Z,6.80
2018-08-04T02:57:24.128Z,9.93
2018-08-04T02:59:52.008Z,8.27
2018-08-04T03:02:19.976Z,9.23
2018-08-04T03:04:47.888Z,9.33
2018-08-04T03:07:16.848Z,9.80
2018-08-04T03:09:44.724Z,7.10
2018-08-04T03:12:12.680Z,6.93
2018-08-04T03:14:40.620Z,9.10
2018-08-04T03:17:08.604Z,8.10
2018-08-04T03:19:36.509Z,9.07
2018-08-04T03:22:04.494Z,9.20
2018-08-04T03:24:32.396Z,7.87
2018-08-04T03:27:00.280Z,11.33
2018-08-04T03:29:28.163Z,9.17
2018-08-04T03:31:56.040Z,8.00
2018-08-04T03:34:23.921Z,7.70
2018-08-04T03:36:52.040Z,8.80
2018-08-04T03:39:19.915Z,10.23
2018-08-04T03:41:47.792Z,6.13
2018-08-04T03:44:15.959Z,6.77
2018-08-04T03:46:43.843Z,6.23
2018-08-04T03:49:11.777Z,7.30
2018-08-04T03:51:39.700Z,9.10
2018-08-04T03:54:07.575Z,8.00
2018-08-04T03:56:35.459Z,11.63
2018-08-04T03:59:03.352Z,9.10
2018-08-04T04:01:31.274Z,7.77
2018-08-04T04:03:59.156Z,7.57
2018-08-04T04:06:27.543Z,10.00
2018-08-04T04:08:55.419Z,10.73
2018-08-04T04:11:23.307Z,8.63
2018-08-04T04:13:51.272Z,9.80
2018-08-04T04:16:19.198Z,8.83
2018-08-04T04:18:47.088Z,10.37
2018-08-04T04:21:14.968Z,12.40
2018-08-04T04:23:43.534Z,11.73
2018-08-04T04:26:11.411Z,10.20
2018-08-04T04:28:39.287Z,11.53
2018-08-04T04:31:07.524Z,9.87
2018-08-04T04:33:35.431Z,9.77
2018-08-04T04:36:03.400Z,8.63
2018-08-04T04:38:31.283Z,8.40
2018-08-04T04:40:59.152Z,9.70
2018-08-04T04:43:27.048Z,11.50
2018-08-04T04:45:54.935Z,9.50
2018-08-04T04:48:22.848Z,13.27
2018-08-04T04:50:50.750Z,9.20
2018-08-04T04:53:18.650Z,11.47
2018-08-04T04:55:46.521Z,8.93
2018-08-04T04:58:14.431Z,8.67
2018-08-04T05:00:42.335Z,8.90
2018-08-04T05:03:10.244Z,8.63
2018-08-04T05:05:38.160Z,9.17
2018-08-04T05:08:06.096Z,8.53
2018-08-04T05:10:33.968Z,8.37
2018-08-04T05:13:01.926Z,13.07
2018-08-04T05:15:29.803Z,12.77
2018-08-04T05:17:57.699Z,12.87
2018-08-04T05:20:25.623Z,19.30
2018-08-04T05:22:53.648Z,18.33
2018-08-04T05:25:21.586Z,17.67
2018-08-04T05:27:49.459Z,18.03
2018-08-04T05:30:17.346Z,18.47
2018-08-04T05:32:45.228Z,27.60
2018-08-04T05:35:13.103Z,16.97
2018-08-04T05:37:41.080Z,14.70
2018-08-04T05:40:08.971Z,16.77
2018-08-04T05:42:36.856Z,17.00
2018-08-04T05:45:05.544Z,25.20
2018-08-04T05:47:33.472Z,13.27
2018-08-04T05:50:01.378Z,13.13
2018-08-04T05:52:29.384Z,9.27
2018-08-04T05:54:57.256Z,9.57
2018-08-04T05:57:25.167Z,19.03
2018-08-04T05:59:53.116Z,10.43
2018-08-04T06:02:21.012Z,12.53
2018-08-04T06:04:48.955Z,7.20
2018-08-04T06:07:16.911Z,6.60
2018-08-04T06:09:44.895Z,7.47
2018-08-04T06:12:13.883Z,5.90
2018-08-04T06:14:43.147Z,8.03
2018-08-04T06:17:11.019Z,6.03
2018-08-04T06:19:38.915Z,5.20
2018-08-04T06:22:07.048Z,6.13
2018-08-04T06:24:34.855Z,5.50
2018-08-04T06:27:02.940Z,8.80
2018-08-04T06:29:30.884Z,7.60
2018-08-04T06:31:58.764Z,6.37
2018-08-04T06:34:26.724Z,7.87
2018-08-04T06:36:54.622Z,7.37
2018-08-04T06:39:22.513Z,6.37
2018-08-04T06:41:50.468Z,5.40
2018-08-04T06:44:18.339Z,7.20
2018-08-04T06:46:46.297Z,10.40
2018-08-04T06:49:14.235Z,6.93
2018-08-04T06:51:42.225Z,7.20
2018-08-04T06:54:10.331Z,8.13
2018-08-04T06:56:38.239Z,10.23
2018-08-04T06:59:06.203Z,6.33
2018-08-04T07:01:34.252Z,9.70
2018-08-04T07:04:02.152Z,8.23
2018-08-04T07:06:30.128Z,6.40
2018-08-04T07:08:57.999Z,6.97
2018-08-04T07:11:25.884Z,8.47
2018-08-04T07:13:53.880Z,12.10
2018-08-04T07:16:21.804Z,7.93
2018-08-04T07:18:49.747Z,12.43
2018-08-04T07:21:17.727Z,7.60
2018-08-04T07:23:46.019Z,6.73
2018-08-04T07:26:14.050Z,10.63
2018-08-04T07:28:42.136Z,6.20
2018-08-04T07:31:10.112Z,9.57
2018-08-04T07:33:38.190Z,11.27
2018-08-04T07:36:07.580Z,6.90
2018-08-04T07:38:35.476Z,14.30
2018-08-04T07:41:03.415Z,9.97
2018-08-04T07:43:31.264Z,7.13
2018-08-04T07:45:59.397Z,9.43
2018-08-04T07:48:28.376Z,11.13
2018-08-04T07:50:56.236Z,9.67
2018-08-04T07:53:24.152Z,9.33
2018-08-04T07:55:52.045Z,7.63
2018-08-04T07:58:19.975Z,8.53
2018-08-04T08:00:47.901Z,9.83
2018-08-04T08:03:15.783Z,9.93
2018-08-04T08:05:43.680Z,10.10
2018-08-04T08:08:11.583Z,9.83
2018-08-04T08:10:39.622Z,7.57
2018-08-04T08:13:07.484Z,9.60
2018-08-04T08:15:35.395Z,9.50
2018-08-04T08:18:03.301Z,15.37
2018-08-04T08:20:31.243Z,10.83
2018-08-04T08:22:59.117Z,8.30
2018-08-04T08:25:27.043Z,15.63
2018-08-04T08:27:54.915Z,10.17
2018-08-04T08:30:22.811Z,7.83
2018-08-04T08:32:50.699Z,10.37
2018-08-04T08:35:18.584Z,5.83
2018-08-04T08:37:46.734Z,6.70
2018-08-04T08:40:14.611Z,9.13
2018-08-04T08:42:42.529Z,7.43
2018-08-04T08:45:10.680Z,10.40
2018-08-04T08:47:38.639Z,13.40
2018-08-04T08:50:07.736Z,7.80
2018-08-04T08:52:35.660Z,10.77
2018-08-04T08:55:03.706Z,7.97
2018-08-04T08:57:31.611Z,7.63
2018-08-04T08:59:59.503Z,9.90
2018-08-04T09:02:28.262Z,7.33
2018-08-04T09:04:56.183Z,7.57
2018-08-04T09:07:24.091Z,8.30
2018-08-04T09:09:52.024Z,11.47
2018-08-04T09:12:19.927Z,7.17
2018-08-04T09:14:47.840Z,12.20
2018-08-04T09:17:15.755Z,9.30
2018-08-04T09:19:43.738Z,10.30
2018-08-04T09:22:11.784Z,8.67
2018-08-04T09:24:39.764Z,6.90
2018-08-04T09:27:07.683Z,7.27
2018-08-04T09:29:35.611Z,7.87
2018-08-04T09:32:03.496Z,7.27
2018-08-04T09:34:31.465Z,11.67
2018-08-04T09:36:59.348Z,9.80
2018-08-04T09:39:27.242Z,6.80
2018-08-04T09:41:55.609Z,8.43
2018-08-04T09:44:23.531Z,7.97
2018-08-04T09:46:51.692Z,8.67
2018-08-04T09:49:19.823Z,9.83
2018-08-04T09:51:48.038Z,7.47
2018-08-04T09:54:22.877Z,7.57
2018-08-04T09:56:51.149Z,9.07
2018-08-04T09:59:19.494Z,10.33
2018-08-04T10:01:47.636Z,8.57
2018-08-04T10:04:15.758Z,10.43
2018-08-04T10:06:43.869Z,8.73
2018-08-04T10:09:12.241Z,9.37
2018-08-04T10:11:40.365Z,13.93
2018-08-04T10:14:08.489Z,7.73
2018-08-04T10:16:36.616Z,12.03
2018-08-04T10:19:04.743Z,7.50
2018-08-04T10:21:32.907Z,12.23
2018-08-04T10:24:01.005Z,7.77
2018-08-04T10:26:29.151Z,7.77
2018-08-04T10:28:57.294Z,8.70
2018-08-04T10:31:25.421Z,14.30
2018-08-04T10:33:53.556Z,10.23
2018-08-04T10:36:21.700Z,7.73
2018-08-04T10:38:49.900Z,11.47
2018-08-04T10:41:18.026Z,8.37
2018-08-04T10:43:46.158Z,15.03
2018-08-04T10:46:14.289Z,11.10
2018-08-04T10:48:42.410Z,15.17
2018-08-04T10:51:11.796Z,11.07
2018-08-04T10:53:39.953Z,10.83
2018-08-04T10:56:08.081Z,8.07
2018-08-04T10:58:36.211Z,8.70
2018-08-04T11:01:04.529Z,7.77
2018-08-04T11:03:32.693Z,7.40
2018-08-04T11:06:00.821Z,9.03
2018-08-04T11:08:28.982Z,9.03
2018-08-04T11:10:57.244Z,11.43
2018-08-04T11:13:25.403Z,9.40
2018-08-04T11:15:53.649Z,13.70
2018-08-04T11:18:21.681Z,11.20
2018-08-04T11:20:49.883Z,17.27
2018-08-04T11:23:18.014Z,13.43
2018-08-04T11:25:46.142Z,7.33
2018-08-04T11:28:14.268Z,9.53
2018-08-04T11:30:42.421Z,10.50
2018-08-04T11:33:10.527Z,8.37
2018-08-04T11:35:38.646Z,8.30
2018-08-04T11:38:06.805Z,8.23
2018-08-04T11:40:34.917Z,8.23
2018-08-04T11:43:03.121Z,8.00
2018-08-04T11:45:31.278Z,7.17
2018-08-04T11:47:59.172Z,8.93
2018-08-04T11:50:27.526Z,7.20
2018-08-04T11:52:55.640Z,7.77
2018-08-04T11:55:23.520Z,11.70
2018-08-04T11:57:51.656Z,9.63
2018-08-04T12:00:19.811Z,7.53
2018-08-04T12:02:48.093Z,8.30
2018-08-04T12:05:16.217Z,10.90
2018-08-04T12:07:44.351Z,7.93
2018-08-04T12:10:12.527Z,7.80
2018-08-04T12:12:40.672Z,9.83
2018-08-04T12:15:08.893Z,8.57
2018-08-04T12:17:37.017Z,9.00
2018-08-04T12:20:05.314Z,9.93
2018-08-04T12:22:33.485Z,8.33
2018-08-04T12:25:01.626Z,12.40
2018-08-04T12:27:29.804Z,9.33
2018-08-04T12:29:57.999Z,9.07
2018-08-04T12:32:26.115Z,9.93
2018-08-04T12:34:54.238Z,7.87
2018-08-04T12:37:22.376Z,8.83
2018-08-04T12:39:50.499Z,7.63
2018-08-04T12:42:18.624Z,7.80
2018-08-04T12:44:47.286Z,8.87
2018-08-04T12:47:15.391Z,11.20
2018-08-04T12:49:43.550Z,7.23
2018-08-04T12:52:11.672Z,7.37
2018-08-04T12:54:39.793Z,7.17
2018-08-04T12:57:07.924Z,8.60
2018-08-04T12:59:36.109Z,9.47
2018-08-04T13:02:04.292Z,8.43
2018-08-04T13:04:32.410Z,7.47
2018-08-04T13:07:00.542Z,13.27
2018-08-04T13:09:28.668Z,7.30
2018-08-04T13:11:56.843Z,7.93
2018-08-04T13:14:24.935Z,10.20
2018-08-04T13:16:53.051Z,8.63
2018-08-04T13:19:21.221Z,7.53
2018-08-04T13:21:49.378Z,10.47
2018-08-04T13:24:17.518Z,21.77
2018-08-04T13:26:45.642Z,29.80
2018-08-04T13:29:13.813Z,38.40
2018-08-04T13:31:41.945Z,19.10
2018-08-04T13:34:10.092Z,14.47
2018-08-04T13:36:39.207Z,8.70
2018-08-04T13:39:08.197Z,7.87
2018-08-04T13:41:37.406Z,7.23
2018-08-04T13:44:05.537Z,6.27
2018-08-04T13:46:33.709Z,5.93
2018-08-04T13:49:01.842Z,7.63
2018-08-04T13:51:30.279Z,7.17
2018-08-04T13:53:58.409Z,9.03
2018-08-04T13:56:33.102Z,7.37
2018-08-04T13:59:01.237Z,7.53
2018-08-04T14:01:29.349Z,6.70
2018-08-04T14:03:57.516Z,6.70
2018-08-04T14:06:25.633Z,7.67
2018-08-04T14:08:53.808Z,6.70
2018-08-04T14:11:22.003Z,6.40
2018-08-04T14:13:50.208Z,8.27
2018-08-04T14:16:18.373Z,7.63
2018-08-04T14:18:46.516Z,6.60
2018-08-04T14:21:14.648Z,6.17
2018-08-04T14:23:43.126Z,7.30
2018-08-04T14:26:11.238Z,6.10
2018-08-04T14:28:39.370Z,7.87
2018-08-04T14:31:07.509Z,7.73
2018-08-04T14:33:35.689Z,11.07
2018-08-04T14:36:03.778Z,9.43
2018-08-04T14:38:31.990Z,7.93
2018-08-04T14:41:00.102Z,6.80
2018-08-04T14:43:29.003Z,7.13
2018-08-04T14:45:57.127Z,9.73
2018-08-04T14:48:25.416Z,9.87
2018-08-04T14:50:53.544Z,20.10
2018-08-04T14:53:21.650Z,7.10
2018-08-04T14:55:49.784Z,7.50
2018-08-04T14:58:17.901Z,9.47
2018-08-04T15:00:46.038Z,6.40
2018-08-04T15:03:14.149Z,9.80
2018-08-04T15:05:42.284Z,7.90
2018-08-04T15:08:10.863Z,11.80
2018-08-04T15:10:38.956Z,11.60
2018-08-04T15:13:07.112Z,7.40
2018-08-04T15:15:35.232Z,9.50
2018-08-04T15:18:03.349Z,7.10
2018-08-04T15:20:31.468Z,7.17
2018-08-04T15:23:06.102Z,8.00
2018-08-04T15:25:34.234Z,6.00
2018-08-04T15:28:02.349Z,7.10
2018-08-04T15:30:30.472Z,9.30
2018-08-04T15:32:59.421Z,9.70
2018-08-04T15:35:27.533Z,7.50
2018-08-04T15:37:55.664Z,7.13
2018-08-04T15:40:23.772Z,7.10
2018-08-04T15:42:51.882Z,6.63
2018-08-04T15:45:20.026Z,6.23
2018-08-04T15:47:48.526Z,6.10
2018-08-04T15:50:16.643Z,6.33
2018-08-04T15:52:45.101Z,8.57
2018-08-04T15:55:13.248Z,6.37
2018-08-04T15:57:41.363Z,6.40
2018-08-04T16:00:10.029Z,6.00
2018-08-04T16:02:38.152Z,6.57
2018-08-04T16:05:06.466Z,6.67
2018-08-04T16:07:34.536Z,5.93
2018-08-04T16:10:02.685Z,6.03
2018-08-04T16:12:30.964Z,5.63
2018-08-04T16:14:59.120Z,7.77
2018-08-04T16:17:27.230Z,6.33
2018-08-04T16:19:55.354Z,5.33
2018-08-04T16:22:23.480Z,7.30
2018-08-04T16:24:52.605Z,6.53
2018-08-04T16:27:20.742Z,6.27
2018-08-04T16:29:48.880Z,5.23
2018-08-04T16:32:17.027Z,6.40
2018-08-04T16:34:45.154Z,6.90
2018-08-04T16:37:13.261Z,8.07
2018-08-04T16:39:41.462Z,5.77
2018-08-04T16:42:09.589Z,7.07
2018-08-04T16:44:37.706Z,4.13
2018-08-04T16:47:05.816Z,5.13
2018-08-04T16:49:33.990Z,6.30
2018-08-04T16:52:02.151Z,10.07
2018-08-04T16:54:30.263Z,7.93
2018-08-04T16:56:58.424Z,7.87
2018-08-04T16:59:26.559Z,5.30
2018-08-04T17:01:54.683Z,4.17
2018-08-04T17:04:22.843Z,3.40
2018-08-04T17:06:50.964Z,6.03
2018-08-04T17:09:19.377Z,4.13
2018-08-04T17:11:47.513Z,5.37
2018-08-04T17:14:15.636Z,6.30
2018-08-04T17:16:43.782Z,3.70
2018-08-04T17:19:12.277Z,4.70
2018-08-04T17:21:40.406Z,4.43
2018-08-04T17:24:08.543Z,4.13
2018-08-04T17:26:36.706Z,4.37
2018-08-04T17:29:05.027Z,3.13
2018-08-04T17:31:33.175Z,2.87
2018-08-04T17:34:01.286Z,4.53
2018-08-04T17:36:29.430Z,3.03
2018-08-04T17:38:57.577Z,3.43
2018-08-04T17:41:25.752Z,3.43
2018-08-04T17:43:53.889Z,4.83
2018-08-04T17:46:30.457Z,3.00
2018-08-04T17:48:58.373Z,3.30
2018-08-04T17:51:26.300Z,2.63
2018-08-04T17:53:54.247Z,3.10
2018-08-04T17:56:22.104Z,3.80
2018-08-04T17:58:50.024Z,3.93
2018-08-04T18:01:17.908Z,4.17
2018-08-04T18:03:45.788Z,2.83
2018-08-04T18:06:14.024Z,2.63
2018-08-04T18:08:41.956Z,3.93
2018-08-04T18:11:09.830Z,3.33
2018-08-04T18:13:37.745Z,3.73
2018-08-04T18:16:05.643Z,2.43
2018-08-04T18:18:33.567Z,7.13
2018-08-04T18:21:01.466Z,6.27
2018-08-04T18:23:29.422Z,3.97
2018-08-04T18:25:57.404Z,3.23
2018-08-04T18:28:25.308Z,2.00
2018-08-04T18:30:53.241Z,4.93
2018-08-04T18:33:21.071Z,2.40
2018-08-04T18:35:48.980Z,2.13
2018-08-04T18:38:16.900Z,3.50
2018-08-04T18:40:44.805Z,1.93
2018-08-04T18:43:12.721Z,5.83
2018-08-04T18:45:40.625Z,4.53
2018-08-04T18:48:08.508Z,2.27
2018-08-04T18:50:36.620Z,2.03
2018-08-04T18:53:04.646Z,3.27
2018-08-04T18:55:32.536Z,2.10
2018-08-04T18:58:00.531Z,2.70
2018-08-04T19:00:28.619Z,2.23
2018-08-04T19:02:57.218Z,1.60
2018-08-04T19:05:25.163Z,1.73
2018-08-04T19:07:53.349Z,1.50
2018-08-04T19:10:21.684Z,3.57
2018-08-04T19:12:50.346Z,3.50
2018-08-04T19:15:18.360Z,2.33
2018-08-04T19:17:46.434Z,2.50
2018-08-04T19:20:15.021Z,1.80
2018-08-04T19:22:44.391Z,1.67
2018-08-04T19:25:13.909Z,3.57
2018-08-04T19:27:43.264Z,11.07
2018-08-04T19:30:12.845Z,3.80
2018-08-04T19:32:42.181Z,2.80
2018-08-04T19:35:11.805Z,2.00
2018-08-04T19:37:41.229Z,2.37
2018-08-04T19:40:10.695Z,2.20
2018-08-04T19:42:40.147Z,1.37
2018-08-04T19:45:09.704Z,2.90
2018-08-04T19:47:39.320Z,2.00
2018-08-04T19:50:08.880Z,4.67
2018-08-04T19:52:38.477Z,2.73
2018-08-04T19:55:07.994Z,2.77
2018-08-04T19:57:37.913Z,2.23
2018-08-04T20:00:07.678Z,1.30
2018-08-04T20:02:37.421Z,2.40
2018-08-04T20:05:06.994Z,5.83
2018-08-04T20:07:36.599Z,1.83
2018-08-04T20:10:06.246Z,2.20
2018-08-04T20:12:35.967Z,2.13
2018-08-04T20:15:05.686Z,2.00
2018-08-04T20:17:35.431Z,1.70
2018-08-04T20:20:05.221Z,1.40
2018-08-04T20:22:35.848Z,2.03
2018-08-04T20:25:05.984Z,3.43
2018-08-04T20:27:36.503Z,4.20
2018-08-04T20:30:06.188Z,2.23
2018-08-04T20:32:35.816Z,3.07
2018-08-04T20:35:06.220Z,1.57
2018-08-04T20:37:35.809Z,1.87
2018-08-04T20:40:05.429Z,2.67
2018-08-04T20:42:34.961Z,2.63
2018-08-04T20:45:05.068Z,1.60
2018-08-04T20:47:34.643Z,1.47
2018-08-04T20:50:04.363Z,2.47
2018-08-04T20:52:34.007Z,1.67
2018-08-04T20:55:04.970Z,1.90
2018-08-04T20:57:34.599Z,1.10
2018-08-04T21:00:05.348Z,4.27
2018-08-04T21:02:35.117Z,1.50
2018-08-04T21:05:04.661Z,1.30
2018-08-04T21:07:34.189Z,3.70
2018-08-04T21:10:03.766Z,2.43
2018-08-04T21:12:33.304Z,1.97
2018-08-04T21:15:02.844Z,1.50
2018-08-04T21:17:32.441Z,4.00
2018-08-04T21:20:01.970Z,2.77
2018-08-04T21:22:31.972Z,2.37
2018-08-04T21:25:01.823Z,1.40
2018-08-04T21:27:31.316Z,2.20
2018-08-04T21:30:00.758Z,2.80
2018-08-04T21:32:43.105Z,1.40
2018-08-04T21:35:12.924Z,2.70
2018-08-04T21:37:42.371Z,1.80
2018-08-04T21:40:11.766Z,2.13
2018-08-04T21:42:41.222Z,3.23
2018-08-04T21:45:11.773Z,2.07
2018-08-04T21:47:41.237Z,2.33
2018-08-04T21:50:10.686Z,2.23
2018-08-04T21:52:40.076Z,2.67
2018-08-04T21:55:08.442Z,1.20
2018-08-04T21:57:37.268Z,3.23
2018-08-04T22:00:08.149Z,2.27
2018-08-04T22:02:36.628Z,3.60
2018-08-04T22:05:05.109Z,2.00
2018-08-04T22:07:39.568Z,2.77
2018-08-04T22:10:07.448Z,2.27
2018-08-04T22:12:35.632Z,2.70
2018-08-04T22:15:04.419Z,2.63
2018-08-04T22:17:32.553Z,1.43
2018-08-04T22:20:00.448Z,2.10
2018-08-04T22:22:28.345Z,1.43
2018-08-04T22:24:56.632Z,2.60
2018-08-04T22:27:24.522Z,2.90
2018-08-04T22:29:52.552Z,2.57
2018-08-04T22:32:20.671Z,2.57
2018-08-04T22:34:48.601Z,2.30
2018-08-04T22:37:16.495Z,2.60
2018-08-04T22:39:44.546Z,3.63
2018-08-04T22:42:12.428Z,1.50
2018-08-04T22:44:45.868Z,4.80
2018-08-04T22:47:13.748Z,1.77
2018-08-04T22:49:41.639Z,2.07
2018-08-04T22:52:09.548Z,6.70
2018-08-04T22:54:37.512Z,2.73
2018-08-04T22:57:05.420Z,1.63
2018-08-04T22:59:33.838Z,2.23
2018-08-04T23:02:01.760Z,1.33
2018-08-04T23:04:29.669Z,2.90
2018-08-04T23:06:57.587Z,2.90
2018-08-04T23:09:25.486Z,2.13
2018-08-04T23:11:53.376Z,1.57
2018-08-04T23:14:21.261Z,1.70
2018-08-04T23:16:49.151Z,1.67
2018-08-04T23:19:17.059Z,1.30
2018-08-04T23:21:44.962Z,1.30
2018-08-04T23:24:12.895Z,1.57
2018-08-04T23:26:41.045Z,2.00
2018-08-04T23:29:08.939Z,3.47
2018-08-04T23:31:36.834Z,2.80
2018-08-04T23:34:04.711Z,3.40
2018-08-04T23:36:32.612Z,4.43
2018-08-04T23:39:00.524Z,4.53
2018-08-04T23:41:28.408Z,2.07
2018-08-04T23:43:56.298Z,3.23
2018-08-04T23:46:24.215Z,1.30
2018-08-04T23:48:52.418Z,1.60
2018-08-04T23:51:20.829Z,2.50
2018-08-04T23:53:48.759Z,2.90
2018-08-04T23:56:17.039Z,2.53
2018-08-04T23:58:44.911Z,1.40
